Time;durP1;ratioP1;P1;durP2;ratioP2;P2;SDS_P1;SDS_P2;PMS_P1;PMS_P2;Temp;Humidity;BMP_temperature;BMP_pressure;BME280_temperature;BME280_humidity;BME280_pressure;Samples;Min_cycle;Max_cycle;Signal;HPM_P1;HPM_P2
2022/08/17 00:00:05;;;;;;;;;;;;;;;;;;5045830;28;19912;-47
2022/08/17 00:02:31;;;;;;;;;;;;;;;;;;5045518;28;19913;-45
2022/08/17 00:04:58;;;;;;;;;;;;;;;;;;5045012;28;19913;-48
2022/08/17 00:07:25;;;;;;;;;;;;;;;;;;5045417;28;19909;-47
2022/08/17 00:09:51;;;;;;;;;;;;;;;;;;5045700;28;20620;-47
2022/08/17 00:12:18;;;;;;;;;;;;;;;;;;5045523;28;19955;-47
2022/08/17 00:14:45;;;;;;;;;;;;;;;;;;5045149;28;20376;-48
2022/08/17 00:17:13;;;;;;;;;;;;;;;;;;5045079;28;21338;-45
2022/08/17 00:19:40;;;;;;;;;;;;;;;;;;5044970;28;19959;-49
2022/08/17 00:22:06;;;;;;;;;;;;;;;;;;5046113;28;19913;-45
2022/08/17 00:24:32;;;;;;;;;;;;;;;;;;5045020;28;19909;-47
2022/08/17 00:26:58;;;;;;;;;;;;;;;;;;5045626;28;19967;-48
2022/08/17 00:29:24;;;;;;;;;;;;;;;;;;5045165;28;20379;-48
2022/08/17 00:31:51;;;;;;;;;;;;;;;;;;5045239;28;19915;-46
2022/08/17 00:34:16;;;;;;;;;;;;;;;;;;5044825;28;19917;-47
2022/08/17 00:36:42;;;;;;;;;;;;;;;;;;5045056;28;19913;-45
2022/08/17 00:39:08;;;;;;;;;;;;;;;;;;5045175;28;19920;-46
2022/08/17 00:41:34;;;;;;;;;;;;;;;;;;5045413;28;19948;-45
2022/08/17 00:44:01;;;;;;;;;;;;;;;;;;5045169;28;20572;-44
2022/08/17 00:46:27;;;;;;;;;;;;;;;;;;5044698;28;19919;-45
2022/08/17 00:48:54;;;;;;;;;;;;;;;;;;5044402;28;20379;-47
2022/08/17 00:51:20;;;;;;;;;;;;;;;;;;5045379;28;20395;-47
2022/08/17 00:53:46;;;;;;;;;;;;;;;;;;5044919;28;20007;-45
2022/08/17 00:56:12;;;;;;;;;;;;;;;;;;5044823;28;19912;-47
2022/08/17 00:58:38;;;;;;;;;;;;;;;;;;5044824;28;19920;-44
2022/08/17 01:01:05;;;;;;;;;;;;;;;;;;5045623;28;20291;-45
2022/08/17 01:03:31;;;;;;;;;;;;;;;;;;5044804;28;19935;-47
2022/08/17 01:05:58;;;;;;;;;;;;;;;;;;5044638;28;20433;-45
2022/08/17 01:08:24;;;;;;;;;;;;;;;;;;5044751;28;19913;-49
2022/08/17 01:10:51;;;;;;;;;;;;;;;;;;5044669;28;20315;-46
2022/08/17 01:13:18;;;;;;;;;;;;;;;;;;5045319;28;20295;-47
2022/08/17 01:15:44;;;;;;;;;;;;;;;;;;5044394;28;19913;-44
2022/08/17 01:18:12;;;;;;;;;;;;;;;;;;5044963;28;19908;-47
2022/08/17 01:20:38;;;;;;;;;;;;;;;;;;5044451;28;19909;-44
2022/08/17 01:23:04;;;;;;;;;;;;;;;;;;5045245;28;19913;-45
2022/08/17 01:25:30;;;;;;;;;;;;;;;;;;5044579;28;19990;-45
2022/08/17 01:27:55;;;;;;;;;;;;;;;;;;5044781;28;19909;-47
2022/08/17 01:30:22;;;;;;;;;;;;;;;;;;5044433;28;20410;-49
2022/08/17 01:32:50;;;;;;;;;;;;;;;;;;5044672;28;19919;-48
2022/08/17 01:35:17;;;;;;;;;;;;;;;;;;5044365;28;19913;-48
2022/08/17 01:37:44;;;;;;;;;;;;;;;;;;5044346;28;20577;-45
2022/08/17 01:40:11;;;;;;;;;;;;;;;;;;5044707;28;20253;-44
2022/08/17 01:42:37;;;;;;;;;;;;;;;;;;5044933;28;19956;-47
2022/08/17 01:45:04;;;;;;;;;;;;;;;;;;5044986;28;19920;-46
2022/08/17 01:47:31;;;;;;;;;;;;;;;;;;5044568;28;19909;-46
2022/08/17 01:49:57;;;;;;;;;;;;;;;;;;5044383;28;19916;-45
2022/08/17 01:52:23;;;;;;;;;;;;;;;;;;5044311;28;19912;-45
2022/08/17 01:54:49;;;;;;;;;;;;;;;;;;5044192;28;19919;-45
2022/08/17 01:57:15;;;;;;;;;;;;;;;;;;5044493;28;19954;-48
2022/08/17 01:59:41;;;;;;;;;;;;;;;;;;5051322;28;20376;-45
2022/08/17 02:02:07;;;;;;;;;;;;;;;;;;5068284;28;19948;-46
2022/08/17 02:04:33;;;;;;;;;;;;;;;;;;5058722;28;19952;-46
2022/08/17 02:06:59;;;;;;;;;;;;;;;;;;5047830;28;19938;-46
2022/08/17 02:09:25;;;;;;;;;;;;;;;;;;5047644;28;19994;-47
2022/08/17 02:11:51;;;;;;;;;;;;;;;;;;5047739;28;19916;-46
2022/08/17 02:14:17;;;;;;;;;;;;;;;;;;5047830;28;19975;-44
2022/08/17 02:16:42;;;;;;;;;;;;;;;;;;5047516;28;19963;-47
2022/08/17 02:19:08;;;;;;;;;;;;;;;;;;5047802;28;19931;-45
2022/08/17 02:21:35;;;;;;;;;;;;;;;;;;5047890;28;19956;-47
2022/08/17 02:24:02;;;;;;;;;;;;;;;;;;5047684;28;19916;-46
2022/08/17 02:26:29;;;;;;;;;;;;;;;;;;5047443;28;19916;-47
2022/08/17 02:28:55;;;;;;;;;;;;;;;;;;5047627;28;20403;-46
2022/08/17 02:31:21;;;;;;;;;;;;;;;;;;5047404;28;19944;-46
2022/08/17 02:33:47;;;;;;;;;;;;;;;;;;5047170;28;19986;-46
2022/08/17 02:36:13;;;;;;;;;;;;;;;;;;5047287;28;19917;-45
2022/08/17 02:38:40;;;;;;;;;;;;;;;;;;5047260;28;19913;-46
2022/08/17 02:41:05;;;;;;;;;;;;;;;;;;5047862;28;19924;-48
2022/08/17 02:43:32;;;;;;;;;;;;;;;;;;5047368;28;19909;-44
2022/08/17 02:45:58;;;;;;;;;;;;;;;;;;5047162;28;20000;-46
2022/08/17 02:48:24;;;;;;;;;;;;;;;;;;5047030;28;20035;-48
2022/08/17 02:50:50;;;;;;;;;;;;;;;;;;5047201;28;19913;-47
2022/08/17 02:53:16;;;;;;;;;;;;;;;;;;5047381;28;20384;-46
2022/08/17 02:55:42;;;;;;;;;;;;;;;;;;5046963;28;19962;-48
2022/08/17 02:58:09;;;;;;;;;;;;;;;;;;5046930;28;19920;-46
2022/08/17 03:00:36;;;;;;;;;;;;;;;;;;5047350;28;20020;-48
2022/08/17 03:03:02;;;;;;;;;;;;;;;;;;5047548;28;19958;-48
2022/08/17 03:05:28;;;;;;;;;;;;;;;;;;5046181;28;19908;-48
2022/08/17 03:07:54;;;;;;;;;;;;;;;;;;5046849;28;19913;-46
2022/08/17 03:10:20;;;;;;;;;;;;;;;;;;5046479;28;19948;-44
2022/08/17 03:12:47;;;;;;;;;;;;;;;;;;5046143;28;19909;-48
2022/08/17 03:15:14;;;;;;;;;;;;;;;;;;5046498;28;20374;-44
2022/08/17 03:17:41;;;;;;;;;;;;;;;;;;5046556;28;19913;-47
2022/08/17 03:20:07;;;;;;;;;;;;;;;;;;5046935;28;19917;-44
2022/08/17 03:22:34;;;;;;;;;;;;;;;;;;5047050;28;19920;-44
2022/08/17 03:25:00;;;;;;;;;;;;;;;;;;5046524;28;19955;-48
2022/08/17 03:27:26;;;;;;;;;;;;;;;;;;5046304;28;20376;-44
2022/08/17 03:29:51;;;;;;;;;;;;;;;;;;5046424;28;20467;-48
2022/08/17 03:32:19;;;;;;;;;;;;;;;;;;5046266;28;19917;-45
2022/08/17 03:34:45;;;;;;;;;;;;;;;;;;5046243;28;19913;-46
2022/08/17 03:37:11;;;;;;;;;;;;;;;;;;5046376;28;19963;-46
2022/08/17 03:39:38;;;;;;;;;;;;;;;;;;5046119;28;19962;-43
2022/08/17 03:42:04;;;;;;;;;;;;;;;;;;5046834;28;19909;-47
2022/08/17 03:44:30;;;;;;;;;;;;;;;;;;5045872;28;19912;-47
2022/08/17 03:57:55;;;;;;;;;;;;;;;;;;5056641;28;20005;-46
2022/08/17 04:00:21;;;;;;;;;;;;;;;;;;5065989;28;19915;-46
2022/08/17 04:02:46;;;;;;;;;;;;;;;;;;5034350;28;19913;-44
2022/08/17 04:05:13;;;;;;;;;;;;;;;;;;5046018;28;20540;-45
2022/08/17 04:07:39;;;;;;;;;;;;;;;;;;5045584;28;20548;-46
2022/08/17 04:10:05;;;;;;;;;;;;;;;;;;5045534;28;19955;-48
2022/08/17 04:12:31;;;;;;;;;;;;;;;;;;5045315;28;19938;-46
2022/08/17 04:14:57;;;;;;;;;;;;;;;;;;5045532;28;19956;-45
2022/08/17 04:17:24;;;;;;;;;;;;;;;;;;5045099;28;20426;-46
2022/08/17 04:19:50;;;;;;;;;;;;;;;;;;5045688;28;19909;-45
2022/08/17 04:22:17;;;;;;;;;;;;;;;;;;5046087;28;19915;-45
2022/08/17 04:24:44;;;;;;;;;;;;;;;;;;5044955;28;20395;-45
2022/08/17 04:27:11;;;;;;;;;;;;;;;;;;5045364;28;19987;-45
2022/08/17 04:29:37;;;;;;;;;;;;;;;;;;5045093;28;19909;-47
2022/08/17 04:32:02;;;;;;;;;;;;;;;;;;5045377;28;19909;-48
2022/08/17 04:34:29;;;;;;;;;;;;;;;;;;5044991;28;19944;-47
2022/08/17 04:36:56;;;;;;;;;;;;;;;;;;5045281;28;19917;-45
2022/08/17 04:39:24;;;;;;;;;;;;;;;;;;5045164;28;19909;-46
2022/08/17 04:42:06;;;;;;;;;;;;;;;;;;5045125;28;19912;-45
2022/08/17 04:44:32;;;;;;;;;;;;;;;;;;5044896;28;20449;-45
2022/08/17 04:46:58;;;;;;;;;;;;;;;;;;5044815;28;20317;-48
2022/08/17 04:49:24;;;;;;;;;;;;;;;;;;5045367;28;19913;-46
2022/08/17 04:51:50;;;;;;;;;;;;;;;;;;5045368;28;19919;-44
2022/08/17 04:54:16;;;;;;;;;;;;;;;;;;5045725;28;19912;-46
2022/08/17 04:56:42;;;;;;;;;;;;;;;;;;5044703;28;20256;-47
2022/08/17 04:59:09;;;;;;;;;;;;;;;;;;5045400;28;19924;-45
2022/08/17 05:01:35;;;;;;;;;;;;;;;;;;5044658;28;19920;-45
2022/08/17 05:04:01;;;;;;;;;;;;;;;;;;5027258;28;19916;-46
2022/08/17 05:06:27;;;;;;;;;;;;;;;;;;5045097;28;19913;-44
2022/08/17 05:08:53;;;;;;;;;;;;;;;;;;5044744;28;19920;-44
2022/08/17 05:11:19;;;;;;;;;;;;;;;;;;5045629;28;19921;-46
2022/08/17 05:13:45;;;;;;;;;;;;;;;;;;5045441;28;20369;-47
2022/08/17 05:16:11;;;;;;;;;;;;;;;;;;5044623;28;19999;-44
2022/08/17 05:18:38;;;;;;;;;;;;;;;;;;5044660;28;19912;-49
2022/08/17 05:21:04;;;;;;;;;;;;;;;;;;5044773;28;19912;-44
2022/08/17 05:23:30;;;;;;;;;;;;;;;;;;5044564;28;19955;-47
2022/08/17 05:25:56;;;;;;;;;;;;;;;;;;5044677;28;19912;-46
2022/08/17 05:28:22;;;;;;;;;;;;;;;;;;5044651;28;20407;-46
2022/08/17 05:30:48;;;;;;;;;;;;;;;;;;5045122;28;19913;-46
2022/08/17 05:33:15;;;;;;;;;;;;;;;;;;5044560;28;20289;-44
2022/08/17 05:35:42;;;;;;;;;;;;;;;;;;5045636;28;19912;-47
2022/08/17 05:38:08;;;;;;;;;;;;;;;;;;5048644;28;19990;-44
2022/08/17 05:40:35;;;;;;;;;;;;;;;;;;5048474;28;19909;-47
2022/08/17 05:43:01;;;;;;;;;;;;;;;;;;5048360;28;20007;-45
2022/08/17 05:45:26;;;;;;;;;;;;;;;;;;5048022;28;19996;-45
2022/08/17 05:47:52;;;;;;;;;;;;;;;;;;5048066;28;19908;-49
2022/08/17 05:50:19;;;;;;;;;;;;;;;;;;5048816;28;19965;-45
2022/08/17 05:52:44;;;;;;;;;;;;;;;;;;5048321;28;20458;-46
2022/08/17 05:55:10;;;;;;;;;;;;;;;;;;5046702;28;19917;-44
2022/08/17 05:57:39;;;;;;;;;;;;;;;;;;5048360;28;19909;-47
2022/08/17 06:00:09;;;;;;;;;;;;;;;;;;5047570;28;19912;-44
2022/08/17 06:02:35;;;;;;;;;;;;;;;;;;5047647;28;19959;-45
2022/08/17 06:05:00;;;;;;;;;;;;;;;;;;5048328;28;20438;-47
2022/08/17 06:07:26;;;;;;;;;;;;;;;;;;5048067;28;19939;-45
2022/08/17 06:09:52;;;;;;;;;;;;;;;;;;5047840;28;20462;-45
2022/08/17 06:12:20;;;;;;;;;;;;;;;;;;5047771;28;19917;-46
2022/08/17 06:14:47;;;;;;;;;;;;;;;;;;5047616;28;19917;-46
2022/08/17 06:17:13;;;;;;;;;;;;;;;;;;5047734;28;20031;-48
2022/08/17 06:19:38;;;;;;;;;;;;;;;;;;5047608;28;19976;-45
2022/08/17 06:22:05;;;;;;;;;;;;;;;;;;5047638;28;19913;-45
2022/08/17 06:24:32;;;;;;;;;;;;;;;;;;5047913;28;19912;-46
2022/08/17 06:26:58;;;;;;;;;;;;;;;;;;5048191;28;19948;-48
2022/08/17 06:29:25;;;;;;;;;;;;;;;;;;5047134;28;20237;-47
2022/08/17 06:31:51;;;;;;;;;;;;;;;;;;5047611;28;19909;-47
2022/08/17 06:34:20;;;;;;;;;;;;;;;;;;5047278;28;19990;-47
2022/08/17 06:36:47;;;;;;;;;;;;;;;;;;5047382;28;20311;-44
2022/08/17 06:39:13;;;;;;;;;;;;;;;;;;5047361;28;19905;-44
2022/08/17 06:41:39;;;;;;;;;;;;;;;;;;5047067;28;20498;-46
2022/08/17 06:44:04;;;;;;;;;;;;;;;;;;5058324;28;20034;-44
2022/08/17 06:46:30;;;;;;;;;;;;;;;;;;5031108;28;20015;-46
2022/08/17 06:48:56;;;;;;;;;;;;;;;;;;5052608;28;20011;-43
2022/08/17 06:51:22;;;;;;;;;;;;;;;;;;5050014;28;19908;-46
2022/08/17 06:53:49;;;;;;;;;;;;;;;;;;5059635;28;19919;-46
2022/08/17 06:56:15;;;;;;;;;;;;;;;;;;5048188;28;19962;-44
2022/08/17 06:58:42;;;;;;;;;;;;;;;;;;5058699;28;20325;-48
2022/08/17 07:01:08;;;;;;;;;;;;;;;;;;5065780;28;19931;-45
2022/08/17 07:03:36;;;;;;;;;;;;;;;;;;5068103;28;20010;-46
2022/08/17 07:06:02;;;;;;;;;;;;;;;;;;5068957;28;19940;-42
2022/08/17 07:08:37;;;;;;;;;;;;;;;;;;5055381;28;19952;-42
2022/08/17 07:11:03;;;;;;;;;;;;;;;;;;5061497;28;19924;-42
2022/08/17 07:13:29;;;;;;;;;;;;;;;;;;5068312;28;20362;-44
2022/08/17 07:15:54;;;;;;;;;;;;;;;;;;5067550;28;19916;-44
2022/08/17 07:18:21;;;;;;;;;;;;;;;;;;5067220;28;19948;-44
2022/08/17 07:20:47;;;;;;;;;;;;;;;;;;5067711;28;19967;-43
2022/08/17 07:23:13;;;;;;;;;;;;;;;;;;5067611;28;19939;-42
2022/08/17 07:25:39;;;;;;;;;;;;;;;;;;5067365;28;19908;-42
2022/08/17 07:28:05;;;;;;;;;;;;;;;;;;5067715;28;19913;-43
2022/08/17 07:30:31;;;;;;;;;;;;;;;;;;5067718;28;19913;-42
2022/08/17 07:32:57;;;;;;;;;;;;;;;;;;5067559;28;19965;-44
2022/08/17 07:35:23;;;;;;;;;;;;;;;;;;5066561;28;20176;-44
2022/08/17 07:37:51;;;;;;;;;;;;;;;;;;5068091;28;19909;-42
2022/08/17 07:40:17;;;;;;;;;;;;;;;;;;5067151;28;19912;-45
2022/08/17 07:42:43;;;;;;;;;;;;;;;;;;5056569;28;20296;-45
2022/08/17 07:48:17;;;;;;;;;;;;;;;;;;5045792;28;19916;-43
2022/08/17 07:50:40;;;;;;;;;;;;;;;;;;5045679;28;20490;-43
2022/08/17 07:53:06;;;;;;;;;;;;;;;;;;5045907;28;20014;-43
2022/08/17 07:55:34;;;;;;;;;;;;;;;;;;5058239;28;19920;-42
2022/08/17 07:58:00;;;;;;;;;;;;;;;;;;5066278;28;19912;-43
2022/08/17 08:00:27;;;;;;;;;;;;;;;;;;5064198;28;19944;-44
2022/08/17 08:02:54;;;;;;;;;;;;;;;;;;5066914;28;19919;-43
2022/08/17 08:05:20;;;;;;;;;;;;;;;;;;5059292;28;19913;-43
2022/08/17 08:07:46;;;;;;;;;;;;;;;;;;5060827;28;19913;-43
2022/08/17 08:10:12;;;;;;;;;;;;;;;;;;5061160;28;19995;-43
2022/08/17 08:12:38;;;;;;;;;;;;;;;;;;5058336;28;19920;-43
2022/08/17 08:15:04;;;;;;;;;;;;;;;;;;5064241;28;19942;-43
2022/08/17 08:17:34;;;;;;;;;;;;;;;;;;5049373;28;19920;-43
2022/08/17 08:20:00;;;;;;;;;;;;;;;;;;5066792;28;19912;-45
2022/08/17 08:22:28;;;;;;;;;;;;;;;;;;5067439;28;20299;-43
2022/08/17 08:24:54;;;;;;;;;;;;;;;;;;5066790;28;19916;-43
2022/08/17 08:27:20;;;;;;;;;;;;;;;;;;5067678;28;20565;-42
2022/08/17 08:29:46;;;;;;;;;;;;;;;;;;5067073;28;19916;-43
2022/08/17 08:32:12;;;;;;;;;;;;;;;;;;5048780;28;19920;-43
2022/08/17 08:34:38;;;;;;;;;;;;;;;;;;5066960;28;19913;-44
2022/08/17 08:37:04;;;;;;;;;;;;;;;;;;5067503;28;19977;-43
2022/08/17 08:39:30;;;;;;;;;;;;;;;;;;5067825;28;19931;-43
2022/08/17 08:41:57;;;;;;;;;;;;;;;;;;5061435;28;19993;-42
2022/08/17 08:44:23;;;;;;;;;;;;;;;;;;5047208;28;19909;-42
2022/08/17 08:46:49;;;;;;;;;;;;;;;;;;5050369;28;19908;-42
2022/08/17 08:49:16;;;;;;;;;;;;;;;;;;5061846;28;19909;-43
2022/08/17 08:51:42;;;;;;;;;;;;;;;;;;5067296;28;19912;-44
2022/08/17 08:54:08;;;;;;;;;;;;;;;;;;5066957;28;19919;-43
2022/08/17 08:56:34;;;;;;;;;;;;;;;;;;5067218;28;19952;-42
2022/08/17 08:59:01;;;;;;;;;;;;;;;;;;5055833;28;19924;-44
2022/08/17 09:01:27;;;;;;;;;;;;;;;;;;5061635;28;19955;-47
2022/08/17 09:03:54;;;;;;;;;;;;;;;;;;5065595;28;19920;-47
2022/08/17 09:06:20;;;;;;;;;;;;;;;;;;5065702;28;20298;-45
2022/08/17 09:08:46;;;;;;;;;;;;;;;;;;5066012;28;19912;-46
2022/08/17 09:11:12;;;;;;;;;;;;;;;;;;5060868;28;19927;-48
2022/08/17 09:13:38;;;;;;;;;;;;;;;;;;5050530;28;19999;-46
2022/08/17 09:16:04;;;;;;;;;;;;;;;;;;5050457;28;20051;-44
2022/08/17 09:18:30;;;;;;;;;;;;;;;;;;5050635;28;19908;-43
2022/08/17 09:20:55;;;;;;;;;;;;;;;;;;5049903;28;19917;-46
2022/08/17 09:23:22;;;;;;;;;;;;;;;;;;5049852;28;19904;-45
2022/08/17 09:25:49;;;;;;;;;;;;;;;;;;5054244;28;20003;-46
2022/08/17 09:28:18;;;;;;;;;;;;;;;;;;5070115;28;19909;-45
2022/08/17 09:30:44;;;;;;;;;;;;;;;;;;5069489;28;20386;-48
2022/08/17 09:33:11;;;;;;;;;;;;;;;;;;5069918;28;19962;-48
2022/08/17 09:35:38;;;;;;;;;;;;;;;;;;5068797;28;19962;-48
2022/08/17 09:38:04;;;;;;;;;;;;;;;;;;5060910;28;19918;-43
2022/08/17 09:40:30;;;;;;;;;;;;;;;;;;5067107;28;19994;-47
2022/08/17 09:42:55;;;;;;;;;;;;;;;;;;5051057;28;19963;-44
2022/08/17 09:45:22;;;;;;;;;;;;;;;;;;5065109;28;19917;-45
2022/08/17 09:47:48;;;;;;;;;;;;;;;;;;5052623;28;20015;-49
2022/08/17 09:50:14;;;;;;;;;;;;;;;;;;5067574;28;20008;-45
2022/08/17 09:52:40;;;;;;;;;;;;;;;;;;5067802;28;19912;-44
2022/08/17 09:55:06;;;;;;;;;;;;;;;;;;5065931;28;19916;-48
2022/08/17 09:57:32;;;;;;;;;;;;;;;;;;5068143;28;19966;-45
2022/08/17 09:59:58;;;;;;;;;;;;;;;;;;5050228;28;19963;-47
2022/08/17 10:02:24;;;;;;;;;;;;;;;;;;5067600;28;20007;-46
2022/08/17 10:04:50;;;;;;;;;;;;;;;;;;5069124;28;20007;-47
2022/08/17 10:07:16;;;;;;;;;;;;;;;;;;5070471;28;19912;-46
2022/08/17 10:09:42;;;;;;;;;;;;;;;;;;5067475;28;19954;-47
2022/08/17 10:12:19;;;;;;;;;;;;;;;;;;5069025;28;19977;-45
2022/08/17 10:14:45;;;;;;;;;;;;;;;;;;5058674;28;20362;-44
2022/08/17 10:17:11;;;;;;;;;;;;;;;;;;5066845;28;20007;-47
2022/08/17 10:19:37;;;;;;;;;;;;;;;;;;5070121;28;20019;-45
2022/08/17 10:27:32;;;;;;;;;;;;;;;;;;5070459;28;19954;-48
2022/08/17 10:29:59;;;;;;;;;;;;;;;;;;5054486;28;19923;-46
2022/08/17 10:32:25;;;;;;;;;;;;;;;;;;5050017;28;20520;-45
2022/08/17 10:34:51;;;;;;;;;;;;;;;;;;5049524;28;20327;-45
2022/08/17 10:37:18;;;;;;;;;;;;;;;;;;5060351;28;19920;-46
2022/08/17 10:39:44;;;;;;;;;;;;;;;;;;5051722;28;19991;-45
2022/08/17 10:42:10;;;;;;;;;;;;;;;;;;5069013;28;19909;-46
2022/08/17 10:44:36;;;;;;;;;;;;;;;;;;5068768;28;19965;-46
2022/08/17 10:47:03;;;;;;;;;;;;;;;;;;5068699;28;20322;-45
2022/08/17 10:49:31;;;;;;;;;;;;;;;;;;5061193;28;20407;-47
2022/08/17 10:51:58;;;;;;;;;;;;;;;;;;5069924;28;19938;-47
2022/08/17 10:54:24;;;;;;;;;;;;;;;;;;5067290;28;19916;-47
2022/08/17 10:56:51;;;;;;;;;;;;;;;;;;5033938;28;20290;-47
2022/08/17 10:59:17;;;;;;;;;;;;;;;;;;5068738;28;20284;-46
2022/08/17 11:01:42;;;;;;;;;;;;;;;;;;5039440;28;19920;-47
2022/08/17 11:04:08;;;;;;;;;;;;;;;;;;5056458;28;19924;-46
2022/08/17 11:06:35;;;;;;;;;;;;;;;;;;5053994;28;19913;-46
2022/08/17 11:09:01;;;;;;;;;;;;;;;;;;5052210;28;19924;-49
2022/08/17 11:11:34;;;;;;;;;;;;;;;;;;5053495;28;19927;-49
2022/08/17 11:14:03;;;;;;;;;;;;;;;;;;5056557;28;20327;-46
2022/08/17 11:16:29;;;;;;;;;;;;;;;;;;5056542;28;19912;-48
2022/08/17 11:18:55;;;;;;;;;;;;;;;;;;5055239;28;19924;-46
2022/08/17 11:21:21;;;;;;;;;;;;;;;;;;5056489;28;19935;-47
2022/08/17 11:23:47;;;;;;;;;;;;;;;;;;5060406;28;20469;-49
2022/08/17 11:26:13;;;;;;;;;;;;;;;;;;5062107;28;19913;-50
2022/08/17 11:28:39;;;;;;;;;;;;;;;;;;5053010;28;19913;-44
2022/08/17 11:31:06;;;;;;;;;;;;;;;;;;5059614;28;20300;-43
2022/08/17 11:33:32;;;;;;;;;;;;;;;;;;5046488;28;19920;-45
2022/08/17 11:35:59;;;;;;;;;;;;;;;;;;5058438;28;20439;-47
2022/08/17 11:38:25;;;;;;;;;;;;;;;;;;5058589;28;20585;-46
2022/08/17 11:40:52;;;;;;;;;;;;;;;;;;5046915;28;19913;-44
2022/08/17 11:43:22;;;;;;;;;;;;;;;;;;5066356;28;20322;-45
2022/08/17 11:45:49;;;;;;;;;;;;;;;;;;5062068;28;19912;-43
2022/08/17 11:53:45;;;;;;;;;;;;;;;;;;5044821;28;20440;-45
2022/08/17 11:56:11;;;;;;;;;;;;;;;;;;5034375;28;20038;-45
2022/08/17 11:58:37;;;;;;;;;;;;;;;;;;5059010;28;20023;-47
2022/08/17 12:01:03;;;;;;;;;;;;;;;;;;5054198;28;19913;-43
2022/08/17 12:03:29;;;;;;;;;;;;;;;;;;5049291;28;19916;-47
2022/08/17 12:05:55;;;;;;;;;;;;;;;;;;5047871;28;19913;-47
2022/08/17 12:08:21;;;;;;;;;;;;;;;;;;5062881;28;19919;-49
2022/08/17 12:10:47;;;;;;;;;;;;;;;;;;5053875;28;19924;-46
2022/08/17 12:13:13;;;;;;;;;;;;;;;;;;5055521;28;19979;-49
2022/08/17 12:15:39;;;;;;;;;;;;;;;;;;5048626;28;19920;-50
2022/08/17 12:18:05;;;;;;;;;;;;;;;;;;5038944;28;19927;-50
2022/08/17 12:20:31;;;;;;;;;;;;;;;;;;5060346;28;20006;-50
2022/08/17 12:22:59;;;;;;;;;;;;;;;;;;5050559;28;20007;-50
2022/08/17 12:25:25;;;;;;;;;;;;;;;;;;5050293;28;20011;-47
2022/08/17 12:27:51;;;;;;;;;;;;;;;;;;5055292;28;20450;-48
2022/08/17 12:30:18;;;;;;;;;;;;;;;;;;5038530;28;19920;-48
2022/08/17 12:32:47;;;;;;;;;;;;;;;;;;5056079;28;19938;-48
2022/08/17 12:35:14;;;;;;;;;;;;;;;;;;5052283;28;19924;-49
2022/08/17 12:37:40;;;;;;;;;;;;;;;;;;5051554;28;19912;-46
2022/08/17 12:40:07;;;;;;;;;;;;;;;;;;5053702;28;19919;-49
2022/08/17 12:42:35;;;;;;;;;;;;;;;;;;5055486;28;19997;-48
2022/08/17 12:45:01;;;;;;;;;;;;;;;;;;5057365;28;19913;-46
2022/08/17 12:47:28;;;;;;;;;;;;;;;;;;5046651;28;20128;-48
2022/08/17 12:49:56;;;;;;;;;;;;;;;;;;5051607;28;19952;-46
2022/08/17 12:52:25;;;;;;;;;;;;;;;;;;5045960;28;20392;-47
2022/08/17 12:54:52;;;;;;;;;;;;;;;;;;5046258;28;19939;-46
2022/08/17 12:57:19;;;;;;;;;;;;;;;;;;5046620;28;20322;-47
2022/08/17 12:59:45;;;;;;;;;;;;;;;;;;5060426;28;19909;-47
2022/08/17 13:02:11;;;;;;;;;;;;;;;;;;5062278;28;20390;-44
2022/08/17 13:04:37;;;;;;;;;;;;;;;;;;5066134;28;19916;-47
2022/08/17 13:07:04;;;;;;;;;;;;;;;;;;5066620;28;19919;-45
2022/08/17 13:09:30;;;;;;;;;;;;;;;;;;5066277;28;19908;-49
2022/08/17 13:11:58;;;;;;;;;;;;;;;;;;5065929;28;19917;-46
2022/08/17 13:14:24;;;;;;;;;;;;;;;;;;5061942;28;19916;-44
2022/08/17 13:16:51;;;;;;;;;;;;;;;;;;5054017;28;20342;-46
2022/08/17 13:19:20;;;;;;;;;;;;;;;;;;5048384;28;19932;-46
2022/08/17 13:21:50;;;;;;;;;;;;;;;;;;5065850;28;20391;-46
2022/08/17 13:24:16;;;;;;;;;;;;;;;;;;5065917;28;19934;-46
2022/08/17 13:26:43;;;;;;;;;;;;;;;;;;5065205;28;19909;-46
2022/08/17 13:29:10;;;;;;;;;;;;;;;;;;5064790;28;19947;-48
2022/08/17 13:31:36;;;;;;;;;;;;;;;;;;5064852;28;20281;-48
2022/08/17 13:34:02;;;;;;;;;;;;;;;;;;5064696;28;19931;-48
2022/08/17 13:36:29;;;;;;;;;;;;;;;;;;5064313;28;19928;-47
2022/08/17 13:38:56;;;;;;;;;;;;;;;;;;5065425;28;19919;-45
2022/08/17 13:41:22;;;;;;;;;;;;;;;;;;5062634;28;19916;-46
2022/08/17 13:43:48;;;;;;;;;;;;;;;;;;5057842;28;19966;-45
2022/08/17 13:46:14;;;;;;;;;;;;;;;;;;5053605;28;19916;-46
2022/08/17 13:48:40;;;;;;;;;;;;;;;;;;5065486;28;20485;-45
2022/08/17 13:51:06;;;;;;;;;;;;;;;;;;5056136;28;20379;-46
2022/08/17 13:53:32;;;;;;;;;;;;;;;;;;5045126;28;19948;-45
2022/08/17 13:55:57;;;;;;;;;;;;;;;;;;5044577;28;20421;-48
2022/08/17 13:58:23;;;;;;;;;;;;;;;;;;5049263;28;19913;-46
2022/08/17 14:00:50;;;;;;;;;;;;;;;;;;5066935;28;19916;-47
2022/08/17 14:03:16;;;;;;;;;;;;;;;;;;5063107;28;20050;-44
2022/08/17 14:05:42;;;;;;;;;;;;;;;;;;5055604;28;20007;-45
2022/08/17 14:08:09;;;;;;;;;;;;;;;;;;5050992;28;19923;-46
2022/08/17 14:10:35;;;;;;;;;;;;;;;;;;5048900;28;19916;-47
2022/08/17 14:13:01;;;;;;;;;;;;;;;;;;5057748;28;19908;-44
2022/08/17 14:15:28;;;;;;;;;;;;;;;;;;5048903;28;19925;-45
2022/08/17 14:17:55;;;;;;;;;;;;;;;;;;5067351;28;19913;-44
2022/08/17 14:20:23;;;;;;;;;;;;;;;;;;5065812;28;19975;-44
2022/08/17 14:22:49;;;;;;;;;;;;;;;;;;5049439;28;19916;-46
2022/08/17 14:25:17;;;;;;;;;;;;;;;;;;5061260;28;20339;-47
2022/08/17 14:27:44;;;;;;;;;;;;;;;;;;5067520;28;19919;-47
2022/08/17 14:30:11;;;;;;;;;;;;;;;;;;5068594;28;19980;-46
2022/08/17 14:32:37;;;;;;;;;;;;;;;;;;5064562;28;20314;-47
2022/08/17 14:35:04;;;;;;;;;;;;;;;;;;5054867;28;19917;-45
2022/08/17 14:37:30;;;;;;;;;;;;;;;;;;5056820;28;20382;-46
2022/08/17 14:39:55;;;;;;;;;;;;;;;;;;5067178;28;20008;-45
2022/08/17 14:42:24;;;;;;;;;;;;;;;;;;5067704;28;19912;-43
2022/08/17 14:44:50;;;;;;;;;;;;;;;;;;5064701;28;19921;-44
2022/08/17 14:47:16;;;;;;;;;;;;;;;;;;5063699;28;20276;-47
2022/08/17 14:49:42;;;;;;;;;;;;;;;;;;5067797;28;19966;-43
2022/08/17 14:52:08;;;;;;;;;;;;;;;;;;5057007;28;19920;-44
2022/08/17 14:54:34;;;;;;;;;;;;;;;;;;5058292;28;20276;-43
2022/08/17 14:57:00;;;;;;;;;;;;;;;;;;5048010;28;19920;-44
2022/08/17 14:59:26;;;;;;;;;;;;;;;;;;5048075;28;19912;-44
2022/08/17 15:01:53;;;;;;;;;;;;;;;;;;5049302;28;19913;-46
2022/08/17 15:04:19;;;;;;;;;;;;;;;;;;5049666;28;19913;-48
2022/08/17 15:06:48;;;;;;;;;;;;;;;;;;5059358;28;20238;-46
2022/08/17 15:09:14;;;;;;;;;;;;;;;;;;5050773;28;19988;-47
2022/08/17 15:11:41;;;;;;;;;;;;;;;;;;5055018;28;20023;-45
2022/08/17 15:14:07;;;;;;;;;;;;;;;;;;5058964;28;19921;-45
2022/08/17 15:16:34;;;;;;;;;;;;;;;;;;5063020;28;19920;-48
2022/08/17 15:19:01;;;;;;;;;;;;;;;;;;5062018;28;19916;-48
2022/08/17 15:21:27;;;;;;;;;;;;;;;;;;5067454;28;19935;-45
2022/08/17 15:23:53;;;;;;;;;;;;;;;;;;5053834;28;20388;-46
2022/08/17 15:26:20;;;;;;;;;;;;;;;;;;5047946;28;19913;-46
2022/08/17 15:28:47;;;;;;;;;;;;;;;;;;5053208;28;19912;-44
2022/08/17 15:31:13;;;;;;;;;;;;;;;;;;5065605;28;20138;-46
2022/08/17 15:33:39;;;;;;;;;;;;;;;;;;5067182;28;19924;-44
2022/08/17 15:36:05;;;;;;;;;;;;;;;;;;5056128;28;19924;-44
2022/08/17 15:38:38;;;;;;;;;;;;;;;;;;5055080;28;20376;-45
2022/08/17 15:41:06;;;;;;;;;;;;;;;;;;5060391;28;19920;-45
2022/08/17 15:43:33;;;;;;;;;;;;;;;;;;5063712;28;19912;-46
2022/08/17 15:45:59;;;;;;;;;;;;;;;;;;5063085;28;19959;-48
2022/08/17 15:48:39;;;;;;;;;;;;;;;;;;5061130;28;19979;-45
2022/08/17 15:51:05;;;;;;;;;;;;;;;;;;5040275;28;19961;-45
2022/08/17 15:53:31;;;;;;;;;;;;;;;;;;5046449;28;19920;-46
2022/08/17 15:55:57;;;;;;;;;;;;;;;;;;5057151;28;19917;-45
2022/08/17 15:58:23;;;;;;;;;;;;;;;;;;5065674;28;19908;-45
2022/08/17 16:00:51;;;;;;;;;;;;;;;;;;5054029;28;19917;-48
2022/08/17 16:03:17;;;;;;;;;;;;;;;;;;5063730;28;19950;-46
2022/08/17 16:05:43;;;;;;;;;;;;;;;;;;5059788;28;19912;-45
2022/08/17 16:08:09;;;;;;;;;;;;;;;;;;5058757;28;19909;-45
2022/08/17 16:10:35;;;;;;;;;;;;;;;;;;5063490;28;19935;-45
2022/08/17 16:13:01;;;;;;;;;;;;;;;;;;5053423;28;20371;-44
2022/08/17 16:15:29;;;;;;;;;;;;;;;;;;5060046;28;19927;-45
2022/08/17 16:17:55;;;;;;;;;;;;;;;;;;5050119;28;19916;-47
2022/08/17 16:20:21;;;;;;;;;;;;;;;;;;5047646;28;20295;-46
2022/08/17 16:22:47;;;;;;;;;;;;;;;;;;5064713;28;19970;-46
2022/08/17 16:25:13;;;;;;;;;;;;;;;;;;5056145;28;19913;-46
2022/08/17 16:27:39;;;;;;;;;;;;;;;;;;5054975;28;19916;-46
2022/08/17 16:30:05;;;;;;;;;;;;;;;;;;5060706;28;19920;-44
2022/08/17 16:32:31;;;;;;;;;;;;;;;;;;5048331;28;19913;-45
2022/08/17 16:34:57;;;;;;;;;;;;;;;;;;5057929;28;19916;-45
2022/08/17 16:37:23;;;;;;;;;;;;;;;;;;5064584;28;19919;-46
2022/08/17 16:39:49;;;;;;;;;;;;;;;;;;5066526;28;19913;-46
2022/08/17 16:42:15;;;;;;;;;;;;;;;;;;5065178;28;19986;-46
2022/08/17 16:44:41;;;;;;;;;;;;;;;;;;5053492;28;19908;-45
2022/08/17 16:47:09;;;;;;;;;;;;;;;;;;5051477;28;19920;-45
2022/08/17 16:49:35;;;;;;;;;;;;;;;;;;5046384;28;20012;-45
2022/08/17 16:52:02;;;;;;;;;;;;;;;;;;5060994;28;20430;-46
2022/08/17 16:54:27;;;;;;;;;;;;;;;;;;5061067;28;19982;-44
2022/08/17 16:56:53;;;;;;;;;;;;;;;;;;5065312;28;20371;-47
2022/08/17 16:59:20;;;;;;;;;;;;;;;;;;5056350;28;19927;-46
2022/08/17 17:01:46;;;;;;;;;;;;;;;;;;5064914;28;19952;-46
2022/08/17 17:04:13;;;;;;;;;;;;;;;;;;5041718;28;19962;-44